sensor_id;sensor_type;location;lat;lon;timestamp;P1;durP1;ratioP1;P2;durP2;ratioP2
59468;SDS011;45277;52.768;18.262;2023-01-09T00:01:21;62.08;;;31.35;;
59468;SDS011;45277;52.768;18.262;2023-01-09T00:02:54;63.67;;;31.27;;
59468;SDS011;45277;52.768;18.262;2023-01-09T00:04:26;57.30;;;29.75;;
59468;SDS011;45277;52.768;18.262;2023-01-09T00:05:57;59.95;;;30.35;;
59468;SDS011;45277;52.768;18.262;2023-01-09T00:07:29;65.50;;;30.55;;
59468;SDS011;45277;52.768;18.262;2023-01-09T00:09:00;59.65;;;29.58;;
59468;SDS011;45277;52.768;18.262;2023-01-09T00:10:33;58.92;;;28.67;;
59468;SDS011;45277;52.768;18.262;2023-01-09T00:12:04;63.42;;;29.27;;
59468;SDS011;45277;52.768;18.262;2023-01-09T00:13:36;60.13;;;29.77;;
59468;SDS011;45277;52.768;18.262;2023-01-09T00:15:08;62.45;;;30.70;;
59468;SDS011;45277;52.768;18.262;2023-01-09T00:16:40;71.75;;;32.08;;
59468;SDS011;45277;52.768;18.262;2023-01-09T00:18:12;67.28;;;31.52;;
59468;SDS011;45277;52.768;18.262;2023-01-09T00:19:43;61.30;;;30.02;;
59468;SDS011;45277;52.768;18.262;2023-01-09T00:21:14;61.28;;;31.05;;
59468;SDS011;45277;52.768;18.262;2023-01-09T00:22:46;66.97;;;31.05;;
59468;SDS011;45277;52.768;18.262;2023-01-09T00:24:17;65.88;;;31.15;;
59468;SDS011;45277;52.768;18.262;2023-01-09T00:25:49;63.58;;;30.55;;
59468;SDS011;45277;52.768;18.262;2023-01-09T00:27:20;56.88;;;29.23;;
59468;SDS011;45277;52.768;18.262;2023-01-09T00:28:52;63.55;;;29.70;;
59468;SDS011;45277;52.768;18.262;2023-01-09T00:30:24;58.58;;;30.92;;
59468;SDS011;45277;52.768;18.262;2023-01-09T00:31:56;67.35;;;30.98;;
59468;SDS011;45277;52.768;18.262;2023-01-09T00:33:28;63.63;;;30.75;;
59468;SDS011;45277;52.768;18.262;2023-01-09T00:35:05;69.57;;;31.15;;
59468;SDS011;45277;52.768;18.262;2023-01-09T00:36:39;67.53;;;31.02;;
59468;SDS011;45277;52.768;18.262;2023-01-09T00:38:11;66.38;;;31.35;;
59468;SDS011;45277;52.768;18.262;2023-01-09T00:39:42;73.15;;;34.75;;
59468;SDS011;45277;52.768;18.262;2023-01-09T00:41:16;69.82;;;33.28;;
59468;SDS011;45277;52.768;18.262;2023-01-09T00:42:52;70.05;;;34.45;;
59468;SDS011;45277;52.768;18.262;2023-01-09T00:44:28;67.32;;;32.97;;
59468;SDS011;45277;52.768;18.262;2023-01-09T00:46:05;70.10;;;33.70;;
59468;SDS011;45277;52.768;18.262;2023-01-09T00:47:38;71.80;;;32.20;;
59468;SDS011;45277;52.768;18.262;2023-01-09T00:49:13;70.40;;;32.92;;
59468;SDS011;45277;52.768;18.262;2023-01-09T00:50:46;67.15;;;32.00;;
59468;SDS011;45277;52.768;18.262;2023-01-09T00:52:18;64.78;;;30.88;;
59468;SDS011;45277;52.768;18.262;2023-01-09T00:53:50;64.45;;;32.05;;
59468;SDS011;45277;52.768;18.262;2023-01-09T00:55:22;66.50;;;32.88;;
59468;SDS011;45277;52.768;18.262;2023-01-09T00:56:54;65.22;;;33.25;;
59468;SDS011;45277;52.768;18.262;2023-01-09T00:58:26;64.80;;;32.17;;
59468;SDS011;45277;52.768;18.262;2023-01-09T00:59:57;58.80;;;29.58;;
59468;SDS011;45277;52.768;18.262;2023-01-09T01:01:29;62.78;;;31.65;;
59468;SDS011;45277;52.768;18.262;2023-01-09T01:03:01;65.30;;;30.98;;
59468;SDS011;45277;52.768;18.262;2023-01-09T01:04:33;61.70;;;30.52;;
59468;SDS011;45277;52.768;18.262;2023-01-09T01:06:22;55.95;;;29.02;;
59468;SDS011;45277;52.768;18.262;2023-01-09T01:08:13;64.55;;;29.65;;
59468;SDS011;45277;52.768;18.262;2023-01-09T01:09:46;58.20;;;29.05;;
59468;SDS011;45277;52.768;18.262;2023-01-09T01:11:17;60.15;;;30.05;;
59468;SDS011;45277;52.768;18.262;2023-01-09T01:12:49;57.03;;;28.55;;
59468;SDS011;45277;52.768;18.262;2023-01-09T01:14:21;63.40;;;29.17;;
59468;SDS011;45277;52.768;18.262;2023-01-09T01:15:53;66.05;;;30.88;;
59468;SDS011;45277;52.768;18.262;2023-01-09T01:17:24;63.13;;;29.95;;
59468;SDS011;45277;52.768;18.262;2023-01-09T01:18:56;62.03;;;31.02;;
59468;SDS011;45277;52.768;18.262;2023-01-09T01:20:27;67.60;;;32.22;;
59468;SDS011;45277;52.768;18.262;2023-01-09T01:21:59;63.72;;;30.55;;
59468;SDS011;45277;52.768;18.262;2023-01-09T01:23:31;63.38;;;31.15;;
59468;SDS011;45277;52.768;18.262;2023-01-09T01:25:03;62.00;;;31.50;;
59468;SDS011;45277;52.768;18.262;2023-01-09T01:26:35;63.90;;;30.85;;
59468;SDS011;45277;52.768;18.262;2023-01-09T01:28:07;55.25;;;29.67;;
59468;SDS011;45277;52.768;18.262;2023-01-09T01:29:39;63.28;;;29.73;;
59468;SDS011;45277;52.768;18.262;2023-01-09T01:31:17;59.42;;;30.30;;
59468;SDS011;45277;52.768;18.262;2023-01-09T01:32:49;59.33;;;31.02;;
59468;SDS011;45277;52.768;18.262;2023-01-09T01:34:21;60.22;;;30.40;;
59468;SDS011;45277;52.768;18.262;2023-01-09T01:35:58;61.30;;;30.65;;
59468;SDS011;45277;52.768;18.262;2023-01-09T01:37:37;59.85;;;30.27;;
59468;SDS011;45277;52.768;18.262;2023-01-09T01:39:08;62.05;;;31.08;;
59468;SDS011;45277;52.768;18.262;2023-01-09T01:40:40;66.20;;;30.67;;
59468;SDS011;45277;52.768;18.262;2023-01-09T01:42:12;58.63;;;30.88;;
59468;SDS011;45277;52.768;18.262;2023-01-09T01:43:49;61.22;;;30.92;;
59468;SDS011;45277;52.768;18.262;2023-01-09T01:45:23;59.75;;;29.38;;
59468;SDS011;45277;52.768;18.262;2023-01-09T01:46:56;63.67;;;30.35;;
59468;SDS011;45277;52.768;18.262;2023-01-09T01:48:28;60.95;;;31.20;;
59468;SDS011;45277;52.768;18.262;2023-01-09T01:50:02;58.42;;;29.60;;
59468;SDS011;45277;52.768;18.262;2023-01-09T01:51:48;61.05;;;30.38;;
59468;SDS011;45277;52.768;18.262;2023-01-09T01:55:03;61.28;;;29.35;;
59468;SDS011;45277;52.768;18.262;2023-01-09T01:56:42;56.40;;;29.17;;
59468;SDS011;45277;52.768;18.262;2023-01-09T01:58:16;60.95;;;30.30;;
59468;SDS011;45277;52.768;18.262;2023-01-09T01:59:50;59.17;;;30.17;;
59468;SDS011;45277;52.768;18.262;2023-01-09T02:01:26;57.58;;;30.67;;
59468;SDS011;45277;52.768;18.262;2023-01-09T02:02:59;57.45;;;29.27;;
59468;SDS011;45277;52.768;18.262;2023-01-09T02:04:33;61.35;;;31.05;;
59468;SDS011;45277;52.768;18.262;2023-01-09T02:06:07;63.40;;;31.10;;
59468;SDS011;45277;52.768;18.262;2023-01-09T02:07:40;58.28;;;30.40;;
59468;SDS011;45277;52.768;18.262;2023-01-09T02:09:11;63.55;;;31.55;;
59468;SDS011;45277;52.768;18.262;2023-01-09T02:10:45;61.10;;;31.50;;
59468;SDS011;45277;52.768;18.262;2023-01-09T02:12:22;58.47;;;29.95;;
59468;SDS011;45277;52.768;18.262;2023-01-09T02:13:55;54.88;;;31.30;;
59468;SDS011;45277;52.768;18.262;2023-01-09T02:15:29;55.22;;;31.15;;
59468;SDS011;45277;52.768;18.262;2023-01-09T02:18:49;58.53;;;30.75;;
59468;SDS011;45277;52.768;18.262;2023-01-09T02:24:10;56.22;;;26.92;;
59468;SDS011;45277;52.768;18.262;2023-01-09T02:35:15;57.80;;;29.35;;
59468;SDS011;45277;52.768;18.262;2023-01-09T02:37:09;56.00;;;29.05;;
59468;SDS011;45277;52.768;18.262;2023-01-09T02:40:29;55.30;;;30.27;;
59468;SDS011;45277;52.768;18.262;2023-01-09T02:42:13;63.50;;;31.35;;
59468;SDS011;45277;52.768;18.262;2023-01-09T02:45:52;53.80;;;27.98;;
59468;SDS011;45277;52.768;18.262;2023-01-09T02:48:58;55.78;;;30.08;;
59468;SDS011;45277;52.768;18.262;2023-01-09T02:50:38;63.35;;;31.30;;
59468;SDS011;45277;52.768;18.262;2023-01-09T02:56:29;55.80;;;29.15;;
59468;SDS011;45277;52.768;18.262;2023-01-09T02:58:38;56.25;;;28.85;;
59468;SDS011;45277;52.768;18.262;2023-01-09T03:02:38;59.42;;;30.58;;
59468;SDS011;45277;52.768;18.262;2023-01-09T03:04:40;61.53;;;29.00;;
59468;SDS011;45277;52.768;18.262;2023-01-09T03:08:07;52.97;;;29.27;;
59468;SDS011;45277;52.768;18.262;2023-01-09T03:09:45;58.78;;;30.52;;
59468;SDS011;45277;52.768;18.262;2023-01-09T03:11:20;63.55;;;32.17;;
59468;SDS011;45277;52.768;18.262;2023-01-09T03:12:52;58.13;;;30.92;;
59468;SDS011;45277;52.768;18.262;2023-01-09T03:14:26;61.80;;;32.10;;
59468;SDS011;45277;52.768;18.262;2023-01-09T03:16:00;57.20;;;32.03;;
59468;SDS011;45277;52.768;18.262;2023-01-09T03:17:36;63.95;;;32.40;;
59468;SDS011;45277;52.768;18.262;2023-01-09T03:19:15;65.20;;;32.95;;
59468;SDS011;45277;52.768;18.262;2023-01-09T03:20:50;58.25;;;31.33;;
59468;SDS011;45277;52.768;18.262;2023-01-09T03:22:24;65.47;;;31.92;;
59468;SDS011;45277;52.768;18.262;2023-01-09T03:23:57;61.60;;;31.42;;
59468;SDS011;45277;52.768;18.262;2023-01-09T03:25:30;65.43;;;32.53;;
59468;SDS011;45277;52.768;18.262;2023-01-09T03:27:02;65.10;;;32.30;;
59468;SDS011;45277;52.768;18.262;2023-01-09T03:28:37;61.45;;;31.70;;
59468;SDS011;45277;52.768;18.262;2023-01-09T03:30:09;66.97;;;34.58;;
59468;SDS011;45277;52.768;18.262;2023-01-09T03:31:40;65.45;;;31.90;;
59468;SDS011;45277;52.768;18.262;2023-01-09T03:33:12;60.85;;;31.80;;
59468;SDS011;45277;52.768;18.262;2023-01-09T03:34:43;63.70;;;32.88;;
59468;SDS011;45277;52.768;18.262;2023-01-09T03:36:15;60.53;;;32.75;;
59468;SDS011;45277;52.768;18.262;2023-01-09T03:37:48;59.70;;;32.30;;
59468;SDS011;45277;52.768;18.262;2023-01-09T03:39:21;66.30;;;34.67;;
59468;SDS011;45277;52.768;18.262;2023-01-09T03:40:52;71.40;;;33.42;;
59468;SDS011;45277;52.768;18.262;2023-01-09T03:42:24;63.17;;;34.33;;
59468;SDS011;45277;52.768;18.262;2023-01-09T03:43:55;69.18;;;34.05;;
59468;SDS011;45277;52.768;18.262;2023-01-09T03:45:26;64.78;;;33.47;;
59468;SDS011;45277;52.768;18.262;2023-01-09T03:46:58;64.78;;;32.92;;
59468;SDS011;45277;52.768;18.262;2023-01-09T03:48:29;59.97;;;33.03;;
59468;SDS011;45277;52.768;18.262;2023-01-09T03:50:01;62.47;;;32.75;;
59468;SDS011;45277;52.768;18.262;2023-01-09T03:51:33;62.30;;;32.28;;
59468;SDS011;45277;52.768;18.262;2023-01-09T03:53:04;59.50;;;31.70;;
59468;SDS011;45277;52.768;18.262;2023-01-09T03:54:35;59.20;;;31.48;;
59468;SDS011;45277;52.768;18.262;2023-01-09T03:56:09;59.80;;;32.50;;
59468;SDS011;45277;52.768;18.262;2023-01-09T03:57:40;60.97;;;32.30;;
59468;SDS011;45277;52.768;18.262;2023-01-09T03:59:11;64.78;;;33.30;;
59468;SDS011;45277;52.768;18.262;2023-01-09T04:00:43;52.45;;;29.45;;
59468;SDS011;45277;52.768;18.262;2023-01-09T04:02:18;59.05;;;30.30;;
59468;SDS011;45277;52.768;18.262;2023-01-09T04:03:49;64.20;;;33.22;;
59468;SDS011;45277;52.768;18.262;2023-01-09T04:05:21;59.55;;;31.20;;
59468;SDS011;45277;52.768;18.262;2023-01-09T04:06:52;52.58;;;29.70;;
59468;SDS011;45277;52.768;18.262;2023-01-09T04:08:24;62.67;;;32.80;;
59468;SDS011;45277;52.768;18.262;2023-01-09T04:09:55;64.40;;;33.35;;
59468;SDS011;45277;52.768;18.262;2023-01-09T04:11:27;61.58;;;31.70;;
59468;SDS011;45277;52.768;18.262;2023-01-09T04:12:58;59.15;;;29.85;;
59468;SDS011;45277;52.768;18.262;2023-01-09T04:14:30;58.10;;;31.02;;
59468;SDS011;45277;52.768;18.262;2023-01-09T04:16:01;57.92;;;31.08;;
59468;SDS011;45277;52.768;18.262;2023-01-09T04:17:32;60.15;;;32.28;;
59468;SDS011;45277;52.768;18.262;2023-01-09T04:19:04;63.63;;;33.22;;
59468;SDS011;45277;52.768;18.262;2023-01-09T04:20:35;58.25;;;31.23;;
59468;SDS011;45277;52.768;18.262;2023-01-09T04:22:06;61.85;;;31.95;;
59468;SDS011;45277;52.768;18.262;2023-01-09T04:23:38;65.20;;;33.33;;
59468;SDS011;45277;52.768;18.262;2023-01-09T04:25:10;57.88;;;32.05;;
59468;SDS011;45277;52.768;18.262;2023-01-09T04:26:41;62.95;;;32.60;;
59468;SDS011;45277;52.768;18.262;2023-01-09T04:28:13;66.57;;;31.67;;
59468;SDS011;45277;52.768;18.262;2023-01-09T04:29:44;62.83;;;33.63;;
59468;SDS011;45277;52.768;18.262;2023-01-09T04:31:16;62.47;;;34.05;;
59468;SDS011;45277;52.768;18.262;2023-01-09T04:32:47;62.85;;;32.03;;
59468;SDS011;45277;52.768;18.262;2023-01-09T04:34:18;68.25;;;33.70;;
59468;SDS011;45277;52.768;18.262;2023-01-09T04:35:55;65.22;;;34.00;;
59468;SDS011;45277;52.768;18.262;2023-01-09T04:37:26;67.65;;;33.45;;
59468;SDS011;45277;52.768;18.262;2023-01-09T04:38:58;69.53;;;33.45;;
59468;SDS011;45277;52.768;18.262;2023-01-09T04:40:29;65.47;;;32.92;;
59468;SDS011;45277;52.768;18.262;2023-01-09T04:42:01;68.03;;;33.25;;
59468;SDS011;45277;52.768;18.262;2023-01-09T04:43:32;63.65;;;32.97;;
59468;SDS011;45277;52.768;18.262;2023-01-09T04:45:05;65.20;;;34.95;;
59468;SDS011;45277;52.768;18.262;2023-01-09T04:46:38;68.78;;;34.20;;
59468;SDS011;45277;52.768;18.262;2023-01-09T04:48:09;69.45;;;33.70;;
59468;SDS011;45277;52.768;18.262;2023-01-09T04:49:40;71.88;;;34.25;;
59468;SDS011;45277;52.768;18.262;2023-01-09T04:51:12;71.03;;;34.95;;
59468;SDS011;45277;52.768;18.262;2023-01-09T04:52:43;63.15;;;33.33;;
59468;SDS011;45277;52.768;18.262;2023-01-09T04:54:15;66.68;;;33.03;;
59468;SDS011;45277;52.768;18.262;2023-01-09T04:55:47;65.85;;;33.80;;
59468;SDS011;45277;52.768;18.262;2023-01-09T04:57:18;68.40;;;33.60;;
59468;SDS011;45277;52.768;18.262;2023-01-09T04:58:50;71.88;;;33.10;;
59468;SDS011;45277;52.768;18.262;2023-01-09T05:00:21;76.20;;;33.95;;
59468;SDS011;45277;52.768;18.262;2023-01-09T05:01:53;66.30;;;34.13;;
59468;SDS011;45277;52.768;18.262;2023-01-09T05:03:25;66.55;;;34.90;;
59468;SDS011;45277;52.768;18.262;2023-01-09T05:04:57;68.22;;;33.92;;
59468;SDS011;45277;52.768;18.262;2023-01-09T05:06:28;67.40;;;34.95;;
59468;SDS011;45277;52.768;18.262;2023-01-09T05:08:00;75.90;;;34.60;;
59468;SDS011;45277;52.768;18.262;2023-01-09T05:09:31;70.95;;;34.00;;
59468;SDS011;45277;52.768;18.262;2023-01-09T05:11:03;63.15;;;32.45;;
59468;SDS011;45277;52.768;18.262;2023-01-09T05:12:35;68.80;;;32.40;;
59468;SDS011;45277;52.768;18.262;2023-01-09T05:14:07;64.10;;;31.45;;
59468;SDS011;45277;52.768;18.262;2023-01-09T05:15:39;68.95;;;34.30;;
59468;SDS011;45277;52.768;18.262;2023-01-09T05:17:10;69.93;;;33.97;;
59468;SDS011;45277;52.768;18.262;2023-01-09T05:18:42;66.35;;;34.10;;
59468;SDS011;45277;52.768;18.262;2023-01-09T05:20:13;64.43;;;32.72;;
59468;SDS011;45277;52.768;18.262;2023-01-09T05:21:45;68.75;;;33.70;;
59468;SDS011;45277;52.768;18.262;2023-01-09T05:23:16;65.57;;;32.53;;
59468;SDS011;45277;52.768;18.262;2023-01-09T05:24:48;63.47;;;31.88;;
59468;SDS011;45277;52.768;18.262;2023-01-09T05:26:20;64.13;;;32.42;;
59468;SDS011;45277;52.768;18.262;2023-01-09T05:27:55;57.78;;;31.45;;
59468;SDS011;45277;52.768;18.262;2023-01-09T05:29:27;62.22;;;32.15;;
59468;SDS011;45277;52.768;18.262;2023-01-09T05:30:58;64.15;;;33.03;;
59468;SDS011;45277;52.768;18.262;2023-01-09T05:32:30;64.30;;;32.38;;
59468;SDS011;45277;52.768;18.262;2023-01-09T05:34:01;67.60;;;32.47;;
59468;SDS011;45277;52.768;18.262;2023-01-09T05:35:33;64.22;;;31.67;;
59468;SDS011;45277;52.768;18.262;2023-01-09T05:37:04;67.65;;;33.28;;
59468;SDS011;45277;52.768;18.262;2023-01-09T05:38:36;67.90;;;33.70;;
59468;SDS011;45277;52.768;18.262;2023-01-09T05:40:08;68.40;;;34.40;;
59468;SDS011;45277;52.768;18.262;2023-01-09T05:41:40;65.75;;;31.92;;
59468;SDS011;45277;52.768;18.262;2023-01-09T05:43:11;65.07;;;32.97;;
59468;SDS011;45277;52.768;18.262;2023-01-09T05:44:43;66.85;;;31.80;;
59468;SDS011;45277;52.768;18.262;2023-01-09T05:46:14;60.35;;;31.35;;
59468;SDS011;45277;52.768;18.262;2023-01-09T05:47:46;66.55;;;34.45;;
59468;SDS011;45277;52.768;18.262;2023-01-09T05:49:17;67.78;;;31.83;;
59468;SDS011;45277;52.768;18.262;2023-01-09T05:50:49;68.18;;;33.70;;
59468;SDS011;45277;52.768;18.262;2023-01-09T05:52:20;70.13;;;33.00;;
59468;SDS011;45277;52.768;18.262;2023-01-09T05:53:52;69.35;;;33.40;;
59468;SDS011;45277;52.768;18.262;2023-01-09T05:55:24;69.05;;;32.70;;
59468;SDS011;45277;52.768;18.262;2023-01-09T05:56:56;67.15;;;34.00;;
59468;SDS011;45277;52.768;18.262;2023-01-09T05:58:27;69.63;;;34.83;;
59468;SDS011;45277;52.768;18.262;2023-01-09T06:00:02;66.05;;;32.80;;
59468;SDS011;45277;52.768;18.262;2023-01-09T06:01:34;66.25;;;33.03;;
59468;SDS011;45277;52.768;18.262;2023-01-09T06:03:05;65.32;;;33.03;;
59468;SDS011;45277;52.768;18.262;2023-01-09T06:04:37;63.67;;;33.50;;
59468;SDS011;45277;52.768;18.262;2023-01-09T06:06:08;67.25;;;33.78;;
59468;SDS011;45277;52.768;18.262;2023-01-09T06:07:40;71.85;;;35.53;;
59468;SDS011;45277;52.768;18.262;2023-01-09T06:09:12;67.80;;;33.58;;
59468;SDS011;45277;52.768;18.262;2023-01-09T06:10:45;72.03;;;34.97;;
59468;SDS011;45277;52.768;18.262;2023-01-09T06:12:17;73.18;;;34.75;;
59468;SDS011;45277;52.768;18.262;2023-01-09T06:13:49;69.78;;;36.72;;
59468;SDS011;45277;52.768;18.262;2023-01-09T06:15:20;67.75;;;35.67;;
59468;SDS011;45277;52.768;18.262;2023-01-09T06:16:52;68.80;;;34.90;;
59468;SDS011;45277;52.768;18.262;2023-01-09T06:18:23;73.03;;;37.75;;
59468;SDS011;45277;52.768;18.262;2023-01-09T06:19:55;73.47;;;37.15;;
59468;SDS011;45277;52.768;18.262;2023-01-09T06:21:26;70.05;;;33.60;;
59468;SDS011;45277;52.768;18.262;2023-01-09T06:22:59;68.10;;;32.95;;
59468;SDS011;45277;52.768;18.262;2023-01-09T06:24:31;67.30;;;35.92;;
59468;SDS011;45277;52.768;18.262;2023-01-09T06:26:02;66.07;;;35.10;;
59468;SDS011;45277;52.768;18.262;2023-01-09T06:27:34;74.95;;;36.08;;
59468;SDS011;45277;52.768;18.262;2023-01-09T06:29:05;71.97;;;36.00;;
59468;SDS011;45277;52.768;18.262;2023-01-09T06:30:38;76.80;;;37.05;;
59468;SDS011;45277;52.768;18.262;2023-01-09T06:32:09;77.18;;;36.65;;
59468;SDS011;45277;52.768;18.262;2023-01-09T06:33:41;72.18;;;35.05;;
59468;SDS011;45277;52.768;18.262;2023-01-09T06:35:12;68.10;;;34.78;;
59468;SDS011;45277;52.768;18.262;2023-01-09T06:36:44;68.07;;;34.55;;
59468;SDS011;45277;52.768;18.262;2023-01-09T06:38:15;66.80;;;34.67;;
59468;SDS011;45277;52.768;18.262;2023-01-09T06:39:47;69.50;;;35.05;;
59468;SDS011;45277;52.768;18.262;2023-01-09T06:41:19;71.35;;;34.45;;
59468;SDS011;45277;52.768;18.262;2023-01-09T06:42:50;71.20;;;35.72;;
59468;SDS011;45277;52.768;18.262;2023-01-09T06:44:21;74.85;;;37.20;;
59468;SDS011;45277;52.768;18.262;2023-01-09T06:45:53;74.47;;;36.90;;
59468;SDS011;45277;52.768;18.262;2023-01-09T06:47:25;79.15;;;36.30;;
59468;SDS011;45277;52.768;18.262;2023-01-09T06:48:56;66.35;;;33.40;;
59468;SDS011;45277;52.768;18.262;2023-01-09T06:50:28;70.82;;;34.88;;
59468;SDS011;45277;52.768;18.262;2023-01-09T06:51:59;71.07;;;34.75;;
59468;SDS011;45277;52.768;18.262;2023-01-09T06:53:35;73.45;;;35.75;;
59468;SDS011;45277;52.768;18.262;2023-01-09T06:55:06;71.63;;;35.63;;
59468;SDS011;45277;52.768;18.262;2023-01-09T06:56:38;70.70;;;33.25;;
59468;SDS011;45277;52.768;18.262;2023-01-09T06:58:10;76.80;;;33.58;;
59468;SDS011;45277;52.768;18.262;2023-01-09T06:59:42;68.00;;;32.95;;
59468;SDS011;45277;52.768;18.262;2023-01-09T07:01:13;72.50;;;34.78;;
59468;SDS011;45277;52.768;18.262;2023-01-09T07:02:45;73.97;;;34.25;;
59468;SDS011;45277;52.768;18.262;2023-01-09T07:04:17;72.50;;;34.55;;
59468;SDS011;45277;52.768;18.262;2023-01-09T07:05:51;76.95;;;33.90;;
59468;SDS011;45277;52.768;18.262;2023-01-09T07:07:22;70.28;;;31.98;;
59468;SDS011;45277;52.768;18.262;2023-01-09T07:08:54;74.82;;;34.95;;
59468;SDS011;45277;52.768;18.262;2023-01-09T07:10:25;80.38;;;36.35;;
59468;SDS011;45277;52.768;18.262;2023-01-09T07:11:57;83.15;;;37.30;;
59468;SDS011;45277;52.768;18.262;2023-01-09T07:13:28;79.85;;;37.90;;
59468;SDS011;45277;52.768;18.262;2023-01-09T07:15:00;82.55;;;38.33;;
59468;SDS011;45277;52.768;18.262;2023-01-09T07:16:31;79.95;;;36.50;;
59468;SDS011;45277;52.768;18.262;2023-01-09T07:18:03;87.63;;;36.75;;
59468;SDS011;45277;52.768;18.262;2023-01-09T07:19:34;87.45;;;37.10;;
59468;SDS011;45277;52.768;18.262;2023-01-09T07:21:06;81.25;;;37.35;;
59468;SDS011;45277;52.768;18.262;2023-01-09T07:22:38;80.43;;;36.83;;
59468;SDS011;45277;52.768;18.262;2023-01-09T07:24:09;79.28;;;36.88;;
59468;SDS011;45277;52.768;18.262;2023-01-09T07:25:41;78.00;;;35.55;;
59468;SDS011;45277;52.768;18.262;2023-01-09T07:27:13;89.35;;;38.08;;
59468;SDS011;45277;52.768;18.262;2023-01-09T07:28:44;88.40;;;37.05;;
59468;SDS011;45277;52.768;18.262;2023-01-09T07:30:15;78.07;;;37.03;;
59468;SDS011;45277;52.768;18.262;2023-01-09T07:31:47;77.35;;;38.55;;
59468;SDS011;45277;52.768;18.262;2023-01-09T07:33:19;84.93;;;36.55;;
59468;SDS011;45277;52.768;18.262;2023-01-09T07:34:50;75.70;;;34.65;;
59468;SDS011;45277;52.768;18.262;2023-01-09T07:36:22;77.35;;;34.90;;
59468;SDS011;45277;52.768;18.262;2023-01-09T07:37:53;79.47;;;36.95;;
59468;SDS011;45277;52.768;18.262;2023-01-09T07:39:25;82.60;;;38.13;;
59468;SDS011;45277;52.768;18.262;2023-01-09T07:40:57;75.50;;;36.00;;
59468;SDS011;45277;52.768;18.262;2023-01-09T07:42:28;81.10;;;36.70;;
59468;SDS011;45277;52.768;18.262;2023-01-09T07:44:00;85.47;;;38.20;;
59468;SDS011;45277;52.768;18.262;2023-01-09T07:45:31;85.20;;;36.78;;
59468;SDS011;45277;52.768;18.262;2023-01-09T07:47:03;77.72;;;34.83;;
59468;SDS011;45277;52.768;18.262;2023-01-09T07:48:34;74.68;;;34.88;;
59468;SDS011;45277;52.768;18.262;2023-01-09T07:50:07;86.43;;;37.47;;
59468;SDS011;45277;52.768;18.262;2023-01-09T07:51:39;78.47;;;34.70;;
59468;SDS011;45277;52.768;18.262;2023-01-09T07:53:12;75.82;;;33.92;;
59468;SDS011;45277;52.768;18.262;2023-01-09T07:54:44;74.50;;;35.50;;
59468;SDS011;45277;52.768;18.262;2023-01-09T07:56:15;75.68;;;36.13;;
59468;SDS011;45277;52.768;18.262;2023-01-09T07:57:48;76.70;;;34.70;;
59468;SDS011;45277;52.768;18.262;2023-01-09T07:59:20;84.32;;;38.42;;
59468;SDS011;45277;52.768;18.262;2023-01-09T08:00:51;85.53;;;38.60;;
59468;SDS011;45277;52.768;18.262;2023-01-09T08:02:23;83.97;;;39.40;;
59468;SDS011;45277;52.768;18.262;2023-01-09T08:03:55;76.82;;;38.42;;
59468;SDS011;45277;52.768;18.262;2023-01-09T08:05:26;91.13;;;37.72;;
59468;SDS011;45277;52.768;18.262;2023-01-09T08:06:58;91.47;;;39.55;;
59468;SDS011;45277;52.768;18.262;2023-01-09T08:08:29;90.30;;;42.60;;
59468;SDS011;45277;52.768;18.262;2023-01-09T08:10:01;90.38;;;41.55;;
59468;SDS011;45277;52.768;18.262;2023-01-09T08:11:33;94.57;;;41.35;;
59468;SDS011;45277;52.768;18.262;2023-01-09T08:13:04;89.97;;;42.65;;
59468;SDS011;45277;52.768;18.262;2023-01-09T08:14:35;96.07;;;46.33;;
59468;SDS011;45277;52.768;18.262;2023-01-09T08:16:07;97.15;;;45.85;;
59468;SDS011;45277;52.768;18.262;2023-01-09T08:17:42;94.68;;;41.95;;
59468;SDS011;45277;52.768;18.262;2023-01-09T08:19:14;101.68;;;42.50;;
59468;SDS011;45277;52.768;18.262;2023-01-09T08:20:49;102.13;;;43.58;;
59468;SDS011;45277;52.768;18.262;2023-01-09T08:22:20;93.15;;;40.13;;
59468;SDS011;45277;52.768;18.262;2023-01-09T08:23:52;86.38;;;39.83;;
59468;SDS011;45277;52.768;18.262;2023-01-09T08:25:23;80.55;;;37.92;;
59468;SDS011;45277;52.768;18.262;2023-01-09T08:26:55;86.25;;;38.45;;
59468;SDS011;45277;52.768;18.262;2023-01-09T08:28:26;86.13;;;38.95;;
59468;SDS011;45277;52.768;18.262;2023-01-09T08:29:58;101.97;;;43.03;;
59468;SDS011;45277;52.768;18.262;2023-01-09T08:31:29;103.72;;;43.40;;
59468;SDS011;45277;52.768;18.262;2023-01-09T08:33:01;87.22;;;42.67;;
59468;SDS011;45277;52.768;18.262;2023-01-09T08:34:33;98.20;;;44.05;;
59468;SDS011;45277;52.768;18.262;2023-01-09T08:36:05;120.88;;;50.05;;
59468;SDS011;45277;52.768;18.262;2023-01-09T08:37:37;129.60;;;58.03;;
59468;SDS011;45277;52.768;18.262;2023-01-09T08:39:08;113.13;;;49.90;;
59468;SDS011;45277;52.768;18.262;2023-01-09T08:40:40;97.28;;;44.50;;
59468;SDS011;45277;52.768;18.262;2023-01-09T08:42:11;107.22;;;45.53;;
59468;SDS011;45277;52.768;18.262;2023-01-09T08:44:01;101.28;;;43.35;;
59468;SDS011;45277;52.768;18.262;2023-01-09T08:45:51;93.20;;;42.28;;
59468;SDS011;45277;52.768;18.262;2023-01-09T08:47:41;91.47;;;41.38;;
59468;SDS011;45277;52.768;18.262;2023-01-09T08:49:13;99.97;;;43.17;;
59468;SDS011;45277;52.768;18.262;2023-01-09T08:50:44;90.28;;;40.50;;
59468;SDS011;45277;52.768;18.262;2023-01-09T08:52:16;93.75;;;41.78;;
59468;SDS011;45277;52.768;18.262;2023-01-09T08:53:47;90.55;;;40.50;;
59468;SDS011;45277;52.768;18.262;2023-01-09T08:55:19;102.90;;;42.30;;
59468;SDS011;45277;52.768;18.262;2023-01-09T08:56:50;97.82;;;42.85;;
59468;SDS011;45277;52.768;18.262;2023-01-09T08:58:22;98.72;;;43.95;;
59468;SDS011;45277;52.768;18.262;2023-01-09T08:59:53;95.38;;;42.95;;
59468;SDS011;45277;52.768;18.262;2023-01-09T09:01:25;89.03;;;40.78;;
59468;SDS011;45277;52.768;18.262;2023-01-09T09:02:57;82.40;;;38.92;;
59468;SDS011;45277;52.768;18.262;2023-01-09T09:04:29;85.85;;;38.72;;
59468;SDS011;45277;52.768;18.262;2023-01-09T09:06:01;86.57;;;39.67;;
59468;SDS011;45277;52.768;18.262;2023-01-09T09:07:32;81.50;;;40.17;;
59468;SDS011;45277;52.768;18.262;2023-01-09T09:09:04;93.70;;;40.83;;
59468;SDS011;45277;52.768;18.262;2023-01-09T09:10:36;86.75;;;39.20;;
59468;SDS011;45277;52.768;18.262;2023-01-09T09:12:08;77.90;;;38.22;;
59468;SDS011;45277;52.768;18.262;2023-01-09T09:13:39;88.22;;;40.22;;
59468;SDS011;45277;52.768;18.262;2023-01-09T09:15:10;86.05;;;39.65;;
59468;SDS011;45277;52.768;18.262;2023-01-09T09:16:42;73.85;;;36.42;;
59468;SDS011;45277;52.768;18.262;2023-01-09T09:18:13;88.85;;;39.28;;
59468;SDS011;45277;52.768;18.262;2023-01-09T09:19:45;89.15;;;40.70;;
59468;SDS011;45277;52.768;18.262;2023-01-09T09:21:17;95.57;;;42.08;;
59468;SDS011;45277;52.768;18.262;2023-01-09T09:22:50;96.00;;;41.97;;
59468;SDS011;45277;52.768;18.262;2023-01-09T09:24:21;96.18;;;42.20;;
59468;SDS011;45277;52.768;18.262;2023-01-09T09:25:53;95.15;;;41.80;;